sensor_id;sensor_type;location;lat;lon;timestamp;temperature;humidity
10133;DHT22;5106;50.926;7.080;2022-09-03T00:00:16;18.00;58.30
10133;DHT22;5106;50.926;7.080;2022-09-03T00:14:08;17.90;58.60
10133;DHT22;5106;50.926;7.080;2022-09-03T00:16:54;17.90;57.90
10133;DHT22;5106;50.926;7.080;2022-09-03T00:19:25;17.90;59.50
10133;DHT22;5106;50.926;7.080;2022-09-03T00:21:55;17.90;58.20
10133;DHT22;5106;50.926;7.080;2022-09-03T00:24:25;18.00;58.80
10133;DHT22;5106;50.926;7.080;2022-09-03T00:26:56;18.00;58.40
10133;DHT22;5106;50.926;7.080;2022-09-03T00:29:28;18.00;57.90
10133;DHT22;5106;50.926;7.080;2022-09-03T00:32:02;18.00;57.60
10133;DHT22;5106;50.926;7.080;2022-09-03T00:34:33;18.00;57.10
10133;DHT22;5106;50.926;7.080;2022-09-03T00:37:00;18.10;57.70
10133;DHT22;5106;50.926;7.080;2022-09-03T00:39:26;18.10;56.90
10133;DHT22;5106;50.926;7.080;2022-09-03T00:55:51;18.00;59.60
10133;DHT22;5106;50.926;7.080;2022-09-03T01:00:54;17.90;58.90
10133;DHT22;5106;50.926;7.080;2022-09-03T01:04:07;17.80;59.20
10133;DHT22;5106;50.926;7.080;2022-09-03T01:09:18;17.70;60.50
10133;DHT22;5106;50.926;7.080;2022-09-03T01:28:48;17.20;61.60
10133;DHT22;5106;50.926;7.080;2022-09-03T01:34:12;17.10;62.30
10133;DHT22;5106;50.926;7.080;2022-09-03T01:39:28;17.10;63.10
10133;DHT22;5106;50.926;7.080;2022-09-03T01:42:01;17.00;62.80
10133;DHT22;5106;50.926;7.080;2022-09-03T02:01:21;16.80;64.80
10133;DHT22;5106;50.926;7.080;2022-09-03T02:03:49;16.70;65.60
10133;DHT22;5106;50.926;7.080;2022-09-03T02:06:15;16.70;66.00
10133;DHT22;5106;50.926;7.080;2022-09-03T02:08:45;16.60;65.60
10133;DHT22;5106;50.926;7.080;2022-09-03T02:11:10;16.60;65.40
10133;DHT22;5106;50.926;7.080;2022-09-03T02:13:53;16.60;66.40
10133;DHT22;5106;50.926;7.080;2022-09-03T02:16:22;16.50;67.00
10133;DHT22;5106;50.926;7.080;2022-09-03T02:18:56;16.50;66.80
10133;DHT22;5106;50.926;7.080;2022-09-03T02:21:25;16.50;66.80
10133;DHT22;5106;50.926;7.080;2022-09-03T02:23:51;16.40;67.90
10133;DHT22;5106;50.926;7.080;2022-09-03T02:26:23;16.40;67.30
10133;DHT22;5106;50.926;7.080;2022-09-03T02:28:50;16.40;66.40
10133;DHT22;5106;50.926;7.080;2022-09-03T02:31:16;16.30;67.50
10133;DHT22;5106;50.926;7.080;2022-09-03T02:33:44;16.30;66.90
10133;DHT22;5106;50.926;7.080;2022-09-03T02:36:13;16.30;67.20
10133;DHT22;5106;50.926;7.080;2022-09-03T02:38:43;16.20;67.00
10133;DHT22;5106;50.926;7.080;2022-09-03T02:41:09;16.20;67.20
10133;DHT22;5106;50.926;7.080;2022-09-03T02:43:57;16.20;66.90
10133;DHT22;5106;50.926;7.080;2022-09-03T02:46:34;16.10;67.30
10133;DHT22;5106;50.926;7.080;2022-09-03T02:49:01;16.10;67.70
10133;DHT22;5106;50.926;7.080;2022-09-03T02:51:31;16.00;68.00
10133;DHT22;5106;50.926;7.080;2022-09-03T02:53:57;16.00;68.00
10133;DHT22;5106;50.926;7.080;2022-09-03T02:56:22;16.00;68.20
10133;DHT22;5106;50.926;7.080;2022-09-03T02:58:52;16.00;67.70
10133;DHT22;5106;50.926;7.080;2022-09-03T03:01:18;16.00;68.00
10133;DHT22;5106;50.926;7.080;2022-09-03T03:03:44;16.00;67.40
10133;DHT22;5106;50.926;7.080;2022-09-03T03:06:10;16.00;67.80
10133;DHT22;5106;50.926;7.080;2022-09-03T03:08:36;15.90;68.10
10133;DHT22;5106;50.926;7.080;2022-09-03T03:11:02;16.00;67.90
10133;DHT22;5106;50.926;7.080;2022-09-03T03:13:29;16.00;67.80
10133;DHT22;5106;50.926;7.080;2022-09-03T03:15:56;16.10;68.00
10133;DHT22;5106;50.926;7.080;2022-09-03T03:18:22;16.10;67.90
10133;DHT22;5106;50.926;7.080;2022-09-03T03:20:48;16.10;68.10
10133;DHT22;5106;50.926;7.080;2022-09-03T03:23:14;16.00;67.60
10133;DHT22;5106;50.926;7.080;2022-09-03T03:25:39;16.00;68.00
10133;DHT22;5106;50.926;7.080;2022-09-03T03:28:06;16.00;68.20
10133;DHT22;5106;50.926;7.080;2022-09-03T03:30:32;16.00;68.40
10133;DHT22;5106;50.926;7.080;2022-09-03T03:32:58;16.00;68.50
10133;DHT22;5106;50.926;7.080;2022-09-03T03:35:25;16.00;68.20
10133;DHT22;5106;50.926;7.080;2022-09-03T03:37:50;16.00;67.80
10133;DHT22;5106;50.926;7.080;2022-09-03T03:40:16;16.00;68.20
10133;DHT22;5106;50.926;7.080;2022-09-03T03:42:42;15.90;68.10
10133;DHT22;5106;50.926;7.080;2022-09-03T03:45:08;16.00;68.00
10133;DHT22;5106;50.926;7.080;2022-09-03T03:47:35;16.00;68.20
10133;DHT22;5106;50.926;7.080;2022-09-03T03:50:01;16.00;68.90
10133;DHT22;5106;50.926;7.080;2022-09-03T03:52:27;16.00;68.80
10133;DHT22;5106;50.926;7.080;2022-09-03T03:54:53;16.00;68.60
10133;DHT22;5106;50.926;7.080;2022-09-03T03:57:20;16.00;68.30
10133;DHT22;5106;50.926;7.080;2022-09-03T03:59:46;16.00;68.80
10133;DHT22;5106;50.926;7.080;2022-09-03T04:02:12;16.00;68.50
10133;DHT22;5106;50.926;7.080;2022-09-03T04:04:38;16.00;69.10
10133;DHT22;5106;50.926;7.080;2022-09-03T04:07:03;16.00;68.70
10133;DHT22;5106;50.926;7.080;2022-09-03T04:09:29;16.00;69.10
10133;DHT22;5106;50.926;7.080;2022-09-03T04:11:54;16.00;69.20
10133;DHT22;5106;50.926;7.080;2022-09-03T04:14:23;16.00;69.00
10133;DHT22;5106;50.926;7.080;2022-09-03T04:16:48;16.00;68.70
10133;DHT22;5106;50.926;7.080;2022-09-03T04:19:15;16.00;69.10
10133;DHT22;5106;50.926;7.080;2022-09-03T04:21:42;16.00;68.20
10133;DHT22;5106;50.926;7.080;2022-09-03T04:24:08;16.00;68.50
10133;DHT22;5106;50.926;7.080;2022-09-03T04:26:34;16.00;67.70
10133;DHT22;5106;50.926;7.080;2022-09-03T04:29:03;16.10;68.70
10133;DHT22;5106;50.926;7.080;2022-09-03T04:31:29;16.10;68.60
10133;DHT22;5106;50.926;7.080;2022-09-03T04:33:56;16.10;68.80
10133;DHT22;5106;50.926;7.080;2022-09-03T04:36:23;16.20;69.30
10133;DHT22;5106;50.926;7.080;2022-09-03T04:38:51;16.20;69.20
10133;DHT22;5106;50.926;7.080;2022-09-03T04:41:29;16.20;68.80
10133;DHT22;5106;50.926;7.080;2022-09-03T04:43:56;16.20;68.80
10133;DHT22;5106;50.926;7.080;2022-09-03T04:46:24;16.20;68.70
10133;DHT22;5106;50.926;7.080;2022-09-03T04:48:52;16.20;67.90
10133;DHT22;5106;50.926;7.080;2022-09-03T04:51:24;16.20;68.30
10133;DHT22;5106;50.926;7.080;2022-09-03T04:53:56;16.30;67.90
10133;DHT22;5106;50.926;7.080;2022-09-03T04:56:24;16.30;68.60
10133;DHT22;5106;50.926;7.080;2022-09-03T04:58:56;16.30;68.20
10133;DHT22;5106;50.926;7.080;2022-09-03T05:01:25;16.30;67.80
10133;DHT22;5106;50.926;7.080;2022-09-03T05:03:51;16.30;68.80
10133;DHT22;5106;50.926;7.080;2022-09-03T05:06:17;16.30;68.60
10133;DHT22;5106;50.926;7.080;2022-09-03T05:08:50;16.30;67.80
10133;DHT22;5106;50.926;7.080;2022-09-03T05:11:16;16.30;67.30
10133;DHT22;5106;50.926;7.080;2022-09-03T05:13:42;16.30;68.00
10133;DHT22;5106;50.926;7.080;2022-09-03T05:16:10;16.40;68.20
10133;DHT22;5106;50.926;7.080;2022-09-03T05:18:37;16.40;67.70
10133;DHT22;5106;50.926;7.080;2022-09-03T05:21:07;16.50;67.60
10133;DHT22;5106;50.926;7.080;2022-09-03T05:23:40;16.50;68.50
10133;DHT22;5106;50.926;7.080;2022-09-03T05:26:09;16.50;68.20
10133;DHT22;5106;50.926;7.080;2022-09-03T05:28:37;16.60;67.50
10133;DHT22;5106;50.926;7.080;2022-09-03T05:31:06;16.60;67.60
10133;DHT22;5106;50.926;7.080;2022-09-03T05:33:36;16.60;67.30
10133;DHT22;5106;50.926;7.080;2022-09-03T05:36:06;16.60;68.40
10133;DHT22;5106;50.926;7.080;2022-09-03T05:38:32;16.60;67.90
10133;DHT22;5106;50.926;7.080;2022-09-03T05:40:59;16.60;67.70
10133;DHT22;5106;50.926;7.080;2022-09-03T05:43:27;16.60;68.30
10133;DHT22;5106;50.926;7.080;2022-09-03T05:46:14;16.70;67.70
10133;DHT22;5106;50.926;7.080;2022-09-03T05:48:44;16.70;66.90
10133;DHT22;5106;50.926;7.080;2022-09-03T05:51:14;16.70;66.40
10133;DHT22;5106;50.926;7.080;2022-09-03T05:53:41;16.80;66.00
10133;DHT22;5106;50.926;7.080;2022-09-03T05:56:10;16.80;65.50
10133;DHT22;5106;50.926;7.080;2022-09-03T05:58:41;16.90;65.60
10133;DHT22;5106;50.926;7.080;2022-09-03T06:01:11;16.90;66.20
10133;DHT22;5106;50.926;7.080;2022-09-03T06:03:45;17.00;66.30
10133;DHT22;5106;50.926;7.080;2022-09-03T06:06:11;17.10;66.20
10133;DHT22;5106;50.926;7.080;2022-09-03T06:08:41;17.10;65.10
10133;DHT22;5106;50.926;7.080;2022-09-03T06:11:07;17.20;65.80
10133;DHT22;5106;50.926;7.080;2022-09-03T06:13:34;17.30;64.50
10133;DHT22;5106;50.926;7.080;2022-09-03T06:16:02;17.40;63.80
10133;DHT22;5106;50.926;7.080;2022-09-03T06:18:28;17.50;63.10
10133;DHT22;5106;50.926;7.080;2022-09-03T06:20:59;17.60;63.30
10133;DHT22;5106;50.926;7.080;2022-09-03T06:23:25;17.60;63.20
10133;DHT22;5106;50.926;7.080;2022-09-03T06:26:10;17.70;63.00
10133;DHT22;5106;50.926;7.080;2022-09-03T06:28:38;17.70;62.50
10133;DHT22;5106;50.926;7.080;2022-09-03T06:31:06;17.80;62.90
10133;DHT22;5106;50.926;7.080;2022-09-03T06:33:34;17.80;63.20
10133;DHT22;5106;50.926;7.080;2022-09-03T06:36:02;17.80;62.50
10133;DHT22;5106;50.926;7.080;2022-09-03T06:38:32;17.90;62.30
10133;DHT22;5106;50.926;7.080;2022-09-03T06:41:03;17.90;62.60
10133;DHT22;5106;50.926;7.080;2022-09-03T06:43:31;17.90;62.30
10133;DHT22;5106;50.926;7.080;2022-09-03T06:46:02;18.00;62.40
10133;DHT22;5106;50.926;7.080;2022-09-03T06:48:30;18.10;62.00
10133;DHT22;5106;50.926;7.080;2022-09-03T06:51:01;18.10;61.90
10133;DHT22;5106;50.926;7.080;2022-09-03T06:53:38;18.20;61.70
10133;DHT22;5106;50.926;7.080;2022-09-03T06:56:12;18.20;62.20
10133;DHT22;5106;50.926;7.080;2022-09-03T06:58:41;18.30;61.70
10133;DHT22;5106;50.926;7.080;2022-09-03T07:01:14;18.40;61.50
10133;DHT22;5106;50.926;7.080;2022-09-03T07:03:42;18.50;61.20
10133;DHT22;5106;50.926;7.080;2022-09-03T07:06:13;18.50;61.20
10133;DHT22;5106;50.926;7.080;2022-09-03T07:08:39;18.60;61.00
10133;DHT22;5106;50.926;7.080;2022-09-03T07:11:08;18.70;60.60
10133;DHT22;5106;50.926;7.080;2022-09-03T07:13:35;18.70;60.50
10133;DHT22;5106;50.926;7.080;2022-09-03T07:16:07;18.80;60.80
10133;DHT22;5106;50.926;7.080;2022-09-03T07:18:35;18.80;60.60
10133;DHT22;5106;50.926;7.080;2022-09-03T07:21:04;18.90;60.30
10133;DHT22;5106;50.926;7.080;2022-09-03T07:23:30;19.00;60.10
10133;DHT22;5106;50.926;7.080;2022-09-03T07:25:59;19.00;60.80
10133;DHT22;5106;50.926;7.080;2022-09-03T07:28:26;19.10;60.30
10133;DHT22;5106;50.926;7.080;2022-09-03T07:30:53;19.20;60.00
10133;DHT22;5106;50.926;7.080;2022-09-03T07:33:19;19.20;59.10
10133;DHT22;5106;50.926;7.080;2022-09-03T07:35:46;19.30;59.60
10133;DHT22;5106;50.926;7.080;2022-09-03T07:38:17;19.30;59.10
10133;DHT22;5106;50.926;7.080;2022-09-03T07:40:44;19.30;59.30
10133;DHT22;5106;50.926;7.080;2022-09-03T07:43:11;19.40;60.10
10133;DHT22;5106;50.926;7.080;2022-09-03T07:45:37;19.50;60.10
10133;DHT22;5106;50.926;7.080;2022-09-03T07:48:04;19.60;59.10
10133;DHT22;5106;50.926;7.080;2022-09-03T07:50:30;19.60;58.80
10133;DHT22;5106;50.926;7.080;2022-09-03T07:53:02;19.70;58.80
10133;DHT22;5106;50.926;7.080;2022-09-03T07:55:27;19.90;59.30
10133;DHT22;5106;50.926;7.080;2022-09-03T07:57:56;20.00;59.20
10133;DHT22;5106;50.926;7.080;2022-09-03T08:00:24;20.30;57.10
10133;DHT22;5106;50.926;7.080;2022-09-03T08:02:53;20.40;56.30
10133;DHT22;5106;50.926;7.080;2022-09-03T08:05:19;20.60;56.30
10133;DHT22;5106;50.926;7.080;2022-09-03T08:07:46;20.80;56.90
10133;DHT22;5106;50.926;7.080;2022-09-03T08:10:13;21.00;56.20
10133;DHT22;5106;50.926;7.080;2022-09-03T08:12:39;21.10;55.60
10133;DHT22;5106;50.926;7.080;2022-09-03T08:15:05;21.20;54.80
10133;DHT22;5106;50.926;7.080;2022-09-03T08:17:31;21.20;55.80
10133;DHT22;5106;50.926;7.080;2022-09-03T08:19:58;21.20;55.60
10133;DHT22;5106;50.926;7.080;2022-09-03T08:22:24;21.10;55.30
10133;DHT22;5106;50.926;7.080;2022-09-03T08:24:50;21.00;55.30
10133;DHT22;5106;50.926;7.080;2022-09-03T08:27:18;20.80;55.60
10133;DHT22;5106;50.926;7.080;2022-09-03T08:29:47;20.70;57.00
10133;DHT22;5106;50.926;7.080;2022-09-03T08:32:13;20.60;56.90
10133;DHT22;5106;50.926;7.080;2022-09-03T08:34:39;20.50;56.80
10133;DHT22;5106;50.926;7.080;2022-09-03T08:37:05;20.40;57.90
10133;DHT22;5106;50.926;7.080;2022-09-03T08:39:34;20.40;57.90
10133;DHT22;5106;50.926;7.080;2022-09-03T08:42:09;20.30;57.80
10133;DHT22;5106;50.926;7.080;2022-09-03T08:52:45;20.00;61.50
10133;DHT22;5106;50.926;7.080;2022-09-03T09:01:16;19.80;63.20
10133;DHT22;5106;50.926;7.080;2022-09-03T09:06:42;19.70;64.30
10133;DHT22;5106;50.926;7.080;2022-09-03T09:20:35;19.40;69.00
10133;DHT22;5106;50.926;7.080;2022-09-03T09:23:10;19.30;70.90
10133;DHT22;5106;50.926;7.080;2022-09-03T09:25:47;19.20;72.20
10133;DHT22;5106;50.926;7.080;2022-09-03T09:28:18;18.90;72.90
10133;DHT22;5106;50.926;7.080;2022-09-03T09:30:46;18.70;73.80
10133;DHT22;5106;50.926;7.080;2022-09-03T09:33:14;18.60;74.70
10133;DHT22;5106;50.926;7.080;2022-09-03T09:35:40;18.50;75.20
10133;DHT22;5106;50.926;7.080;2022-09-03T09:38:08;18.50;76.00
10133;DHT22;5106;50.926;7.080;2022-09-03T09:40:36;18.40;76.60
10133;DHT22;5106;50.926;7.080;2022-09-03T09:45:44;18.40;76.90
10133;DHT22;5106;50.926;7.080;2022-09-03T09:48:25;18.40;77.00
10133;DHT22;5106;50.926;7.080;2022-09-03T09:51:28;18.50;76.40
10133;DHT22;5106;50.926;7.080;2022-09-03T09:54:14;18.50;76.60
10133;DHT22;5106;50.926;7.080;2022-09-03T09:56:45;18.60;77.00
10133;DHT22;5106;50.926;7.080;2022-09-03T09:59:12;18.70;76.00
10133;DHT22;5106;50.926;7.080;2022-09-03T10:01:43;18.70;75.50
10133;DHT22;5106;50.926;7.080;2022-09-03T10:04:24;18.80;74.90
10133;DHT22;5106;50.926;7.080;2022-09-03T10:07:23;18.90;74.60
10133;DHT22;5106;50.926;7.080;2022-09-03T10:17:42;19.50;73.00
10133;DHT22;5106;50.926;7.080;2022-09-03T10:23:25;19.90;70.50
10133;DHT22;5106;50.926;7.080;2022-09-03T10:28:38;20.30;66.70
10133;DHT22;5106;50.926;7.080;2022-09-03T10:34:15;20.50;66.50
10133;DHT22;5106;50.926;7.080;2022-09-03T10:39:42;20.90;65.30
10133;DHT22;5106;50.926;7.080;2022-09-03T11:05:05;22.30;61.40
10133;DHT22;5106;50.926;7.080;2022-09-03T11:07:37;22.40;61.40
10133;DHT22;5106;50.926;7.080;2022-09-03T11:10:29;22.40;60.30
10133;DHT22;5106;50.926;7.080;2022-09-03T11:15:54;22.50;60.90
10133;DHT22;5106;50.926;7.080;2022-09-03T11:20:55;22.70;61.30
10133;DHT22;5106;50.926;7.080;2022-09-03T11:23:28;22.90;60.50
10133;DHT22;5106;50.926;7.080;2022-09-03T11:25:58;23.10;60.40
10133;DHT22;5106;50.926;7.080;2022-09-03T11:29:04;23.20;60.30
10133;DHT22;5106;50.926;7.080;2022-09-03T11:31:55;23.30;60.20
10133;DHT22;5106;50.926;7.080;2022-09-03T11:36:50;23.50;60.40
10133;DHT22;5106;50.926;7.080;2022-09-03T11:39:43;23.50;60.10
10133;DHT22;5106;50.926;7.080;2022-09-03T11:42:18;23.60;60.30
10133;DHT22;5106;50.926;7.080;2022-09-03T11:44:48;23.60;59.50
10133;DHT22;5106;50.926;7.080;2022-09-03T11:49:50;23.60;59.20
10133;DHT22;5106;50.926;7.080;2022-09-03T11:52:29;23.70;59.40
10133;DHT22;5106;50.926;7.080;2022-09-03T11:54:57;23.70;59.50
10133;DHT22;5106;50.926;7.080;2022-09-03T11:57:29;23.70;59.60
10133;DHT22;5106;50.926;7.080;2022-09-03T12:00:13;23.60;59.10
10133;DHT22;5106;50.926;7.080;2022-09-03T12:02:46;23.60;59.80
10133;DHT22;5106;50.926;7.080;2022-09-03T12:05:26;23.60;59.70
10133;DHT22;5106;50.926;7.080;2022-09-03T12:10:43;23.70;59.30
10133;DHT22;5106;50.926;7.080;2022-09-03T12:13:28;23.70;59.80
10133;DHT22;5106;50.926;7.080;2022-09-03T12:18:39;23.90;59.70
10133;DHT22;5106;50.926;7.080;2022-09-03T12:21:06;24.00;59.10
10133;DHT22;5106;50.926;7.080;2022-09-03T12:23:39;24.10;58.90
10133;DHT22;5106;50.926;7.080;2022-09-03T12:28:50;24.20;59.20
10133;DHT22;5106;50.926;7.080;2022-09-03T12:31:28;24.30;59.20
10133;DHT22;5106;50.926;7.080;2022-09-03T12:34:04;24.30;58.60
10133;DHT22;5106;50.926;7.080;2022-09-03T12:36:40;24.40;58.80
10133;DHT22;5106;50.926;7.080;2022-09-03T12:39:28;24.50;57.80
10133;DHT22;5106;50.926;7.080;2022-09-03T12:49:39;24.80;57.70
10133;DHT22;5106;50.926;7.080;2022-09-03T12:57:27;24.90;57.50
10133;DHT22;5106;50.926;7.080;2022-09-03T12:59:58;24.90;57.20
10133;DHT22;5106;50.926;7.080;2022-09-03T13:05:39;24.80;57.60
10133;DHT22;5106;50.926;7.080;2022-09-03T13:08:08;24.80;58.40
10133;DHT22;5106;50.926;7.080;2022-09-03T13:10:39;24.80;58.20
10133;DHT22;5106;50.926;7.080;2022-09-03T13:13:27;24.80;58.20
10133;DHT22;5106;50.926;7.080;2022-09-03T13:16:28;24.90;58.30
10133;DHT22;5106;50.926;7.080;2022-09-03T13:32:52;25.10;58.90
10133;DHT22;5106;50.926;7.080;2022-09-03T13:35:48;25.10;58.40
10133;DHT22;5106;50.926;7.080;2022-09-03T13:43:46;25.10;59.70
10133;DHT22;5106;50.926;7.080;2022-09-03T13:46:23;25.20;59.20
10133;DHT22;5106;50.926;7.080;2022-09-03T13:48:58;25.20;59.20
10133;DHT22;5106;50.926;7.080;2022-09-03T13:51:53;25.30;58.90
10133;DHT22;5106;50.926;7.080;2022-09-03T13:54:25;25.30;59.10
10133;DHT22;5106;50.926;7.080;2022-09-03T13:57:08;25.40;58.90
10133;DHT22;5106;50.926;7.080;2022-09-03T13:59:55;25.50;58.50
10133;DHT22;5106;50.926;7.080;2022-09-03T14:02:51;25.50;58.70
10133;DHT22;5106;50.926;7.080;2022-09-03T14:05:42;25.60;58.70
10133;DHT22;5106;50.926;7.080;2022-09-03T14:26:35;26.10;57.30
10133;DHT22;5106;50.926;7.080;2022-09-03T14:34:07;26.30;56.80
10133;DHT22;5106;50.926;7.080;2022-09-03T14:36:54;26.40;56.20
10133;DHT22;5106;50.926;7.080;2022-09-03T14:59:43;26.40;56.00
10133;DHT22;5106;50.926;7.080;2022-09-03T15:05:09;26.10;57.10
10133;DHT22;5106;50.926;7.080;2022-09-03T15:07:52;26.00;57.10
10133;DHT22;5106;50.926;7.080;2022-09-03T15:13:07;25.90;57.70
10133;DHT22;5106;50.926;7.080;2022-09-03T15:20:44;25.80;58.00
10133;DHT22;5106;50.926;7.080;2022-09-03T15:23:49;25.80;58.30
10133;DHT22;5106;50.926;7.080;2022-09-03T15:29:12;25.70;58.00
10133;DHT22;5106;50.926;7.080;2022-09-03T15:32:23;25.70;58.00
10133;DHT22;5106;50.926;7.080;2022-09-03T15:35:04;25.60;58.40
10133;DHT22;5106;50.926;7.080;2022-09-03T15:37:39;25.50;59.10
10133;DHT22;5106;50.926;7.080;2022-09-03T15:42:47;25.40;59.90
10133;DHT22;5106;50.926;7.080;2022-09-03T15:45:33;25.30;59.90
10133;DHT22;5106;50.926;7.080;2022-09-03T15:51:21;25.20;60.30
10133;DHT22;5106;50.926;7.080;2022-09-03T15:53:59;25.10;60.70
10133;DHT22;5106;50.926;7.080;2022-09-03T15:56:40;25.00;61.00
10133;DHT22;5106;50.926;7.080;2022-09-03T15:59:16;25.00;60.80
10133;DHT22;5106;50.926;7.080;2022-09-03T16:15:39;24.90;60.00
10133;DHT22;5106;50.926;7.080;2022-09-03T16:18:34;24.90;60.60
10133;DHT22;5106;50.926;7.080;2022-09-03T16:29:12;24.70;61.90
10133;DHT22;5106;50.926;7.080;2022-09-03T16:37:36;24.40;65.40
10133;DHT22;5106;50.926;7.080;2022-09-03T16:51:54;23.80;65.70
10133;DHT22;5106;50.926;7.080;2022-09-03T16:57:30;24.20;66.30
10133;DHT22;5106;50.926;7.080;2022-09-03T17:00:13;24.30;67.00
10133;DHT22;5106;50.926;7.080;2022-09-03T17:17:01;23.30;73.00
10133;DHT22;5106;50.926;7.080;2022-09-03T17:24:50;22.70;75.00
10133;DHT22;5106;50.926;7.080;2022-09-03T17:36:16;22.00;76.10
10133;DHT22;5106;50.926;7.080;2022-09-03T17:41:47;21.80;76.60
10133;DHT22;5106;50.926;7.080;2022-09-03T17:49:51;21.70;77.10
10133;DHT22;5106;50.926;7.080;2022-09-03T17:52:31;21.70;77.30
10133;DHT22;5106;50.926;7.080;2022-09-03T17:55:32;21.60;77.80
10133;DHT22;5106;50.926;7.080;2022-09-03T18:06:49;21.10;78.00
10133;DHT22;5106;50.926;7.080;2022-09-03T18:11:49;20.90;77.80
10133;DHT22;5106;50.926;7.080;2022-09-03T18:14:23;20.90;77.80
10133;DHT22;5106;50.926;7.080;2022-09-03T18:17:04;20.80;77.90
10133;DHT22;5106;50.926;7.080;2022-09-03T18:19:35;20.70;78.10
10133;DHT22;5106;50.926;7.080;2022-09-03T18:22:23;20.60;78.30
10133;DHT22;5106;50.926;7.080;2022-09-03T18:25:11;20.50;78.60
10133;DHT22;5106;50.926;7.080;2022-09-03T18:28:02;20.50;78.50
10133;DHT22;5106;50.926;7.080;2022-09-03T18:30:48;20.40;78.50
10133;DHT22;5106;50.926;7.080;2022-09-03T18:33:32;20.30;78.60
10133;DHT22;5106;50.926;7.080;2022-09-03T18:36:16;20.20;78.70
10133;DHT22;5106;50.926;7.080;2022-09-03T18:39:14;20.20;78.90
10133;DHT22;5106;50.926;7.080;2022-09-03T18:48:10;20.00;79.10
10133;DHT22;5106;50.926;7.080;2022-09-03T19:00:20;19.70;80.10
10133;DHT22;5106;50.926;7.080;2022-09-03T19:03:34;19.60;80.00
10133;DHT22;5106;50.926;7.080;2022-09-03T19:10:02;19.40;80.70
10133;DHT22;5106;50.926;7.080;2022-09-03T19:15:51;19.20;81.20
10133;DHT22;5106;50.926;7.080;2022-09-03T19:22:09;19.20;81.20
10133;DHT22;5106;50.926;7.080;2022-09-03T19:25:03;19.10;81.00
10133;DHT22;5106;50.926;7.080;2022-09-03T19:28:03;19.10;81.00
10133;DHT22;5106;50.926;7.080;2022-09-03T19:37:29;18.90;81.50
10133;DHT22;5106;50.926;7.080;2022-09-03T19:40:45;18.80;81.80
10133;DHT22;5106;50.926;7.080;2022-09-03T19:46:54;18.70;81.80
10133;DHT22;5106;50.926;7.080;2022-09-03T19:50:03;18.70;81.90
10133;DHT22;5106;50.926;7.080;2022-09-03T19:52:53;18.70;81.90
10133;DHT22;5106;50.926;7.080;2022-09-03T19:55:46;18.70;81.90
10133;DHT22;5106;50.926;7.080;2022-09-03T19:58:32;18.60;81.80
10133;DHT22;5106;50.926;7.080;2022-09-03T20:01:19;18.60;82.00
10133;DHT22;5106;50.926;7.080;2022-09-03T20:04:14;18.60;81.90
10133;DHT22;5106;50.926;7.080;2022-09-03T20:07:02;18.50;82.10
10133;DHT22;5106;50.926;7.080;2022-09-03T20:09:47;18.50;82.20
10133;DHT22;5106;50.926;7.080;2022-09-03T20:12:35;18.50;82.20
10133;DHT22;5106;50.926;7.080;2022-09-03T20:15:06;18.40;82.40
10133;DHT22;5106;50.926;7.080;2022-09-03T20:18:04;18.40;82.40
10133;DHT22;5106;50.926;7.080;2022-09-03T20:21:01;18.40;82.60
10133;DHT22;5106;50.926;7.080;2022-09-03T20:23:39;18.30;82.60
10133;DHT22;5106;50.926;7.080;2022-09-03T20:29:10;18.30;82.80
10133;DHT22;5106;50.926;7.080;2022-09-03T20:31:52;18.30;82.80
10133;DHT22;5106;50.926;7.080;2022-09-03T20:37:23;18.20;82.90
10133;DHT22;5106;50.926;7.080;2022-09-03T20:40:13;18.20;83.00
10133;DHT22;5106;50.926;7.080;2022-09-03T20:51:10;18.10;82.80
10133;DHT22;5106;50.926;7.080;2022-09-03T20:57:02;18.00;82.70
10133;DHT22;5106;50.926;7.080;2022-09-03T21:00:02;18.00;83.10
10133;DHT22;5106;50.926;7.080;2022-09-03T21:05:24;17.90;82.90
10133;DHT22;5106;50.926;7.080;2022-09-03T21:11:00;17.90;82.80
10133;DHT22;5106;50.926;7.080;2022-09-03T21:13:51;17.90;82.90
10133;DHT22;5106;50.926;7.080;2022-09-03T21:25:20;17.90;82.80
10133;DHT22;5106;50.926;7.080;2022-09-03T21:27:53;17.80;82.80
10133;DHT22;5106;50.926;7.080;2022-09-03T21:30:19;17.80;82.90
10133;DHT22;5106;50.926;7.080;2022-09-03T21:33:02;17.80;83.10
10133;DHT22;5106;50.926;7.080;2022-09-03T21:35:34;17.70;83.00
10133;DHT22;5106;50.926;7.080;2022-09-03T21:38:31;17.70;83.20
10133;DHT22;5106;50.926;7.080;2022-09-03T21:44:02;17.70;83.10
10133;DHT22;5106;50.926;7.080;2022-09-03T21:46:48;17.60;83.00
10133;DHT22;5106;50.926;7.080;2022-09-03T21:49:22;17.60;83.30
10133;DHT22;5106;50.926;7.080;2022-09-03T21:51:51;17.60;83.20
10133;DHT22;5106;50.926;7.080;2022-09-03T21:54:27;17.50;83.30
10133;DHT22;5106;50.926;7.080;2022-09-03T21:56:59;17.50;83.40
10133;DHT22;5106;50.926;7.080;2022-09-03T22:04:46;17.50;83.30
10133;DHT22;5106;50.926;7.080;2022-09-03T22:10:06;17.50;83.30
10133;DHT22;5106;50.926;7.080;2022-09-03T22:13:01;17.50;83.50
10133;DHT22;5106;50.926;7.080;2022-09-03T22:15:27;17.50;83.50
10133;DHT22;5106;50.926;7.080;2022-09-03T22:18:12;17.40;83.50
10133;DHT22;5106;50.926;7.080;2022-09-03T22:20:45;17.40;83.60
10133;DHT22;5106;50.926;7.080;2022-09-03T22:23:21;17.40;83.60
10133;DHT22;5106;50.926;7.080;2022-09-03T22:26:00;17.40;83.60
10133;DHT22;5106;50.926;7.080;2022-09-03T22:29:00;17.40;83.60
10133;DHT22;5106;50.926;7.080;2022-09-03T22:31:58;17.30;83.60
10133;DHT22;5106;50.926;7.080;2022-09-03T22:34:41;17.40;83.70
10133;DHT22;5106;50.926;7.080;2022-09-03T22:37:26;17.30;83.70
10133;DHT22;5106;50.926;7.080;2022-09-03T22:40:06;17.30;83.80
10133;DHT22;5106;50.926;7.080;2022-09-03T22:43:03;17.30;83.70
10133;DHT22;5106;50.926;7.080;2022-09-03T22:50:59;17.20;84.00
10133;DHT22;5106;50.926;7.080;2022-09-03T22:56:17;17.20;83.80
10133;DHT22;5106;50.926;7.080;2022-09-03T23:01:31;17.20;84.00
10133;DHT22;5106;50.926;7.080;2022-09-03T23:06:40;17.10;84.30
10133;DHT22;5106;50.926;7.080;2022-09-03T23:09:13;17.10;84.30
10133;DHT22;5106;50.926;7.080;2022-09-03T23:11:43;17.10;84.20
10133;DHT22;5106;50.926;7.080;2022-09-03T23:14:26;17.10;84.20
10133;DHT22;5106;50.926;7.080;2022-09-03T23:17:15;17.10;84.20
10133;DHT22;5106;50.926;7.080;2022-09-03T23:19:48;17.10;84.30
10133;DHT22;5106;50.926;7.080;2022-09-03T23:22:26;17.10;84.40
10133;DHT22;5106;50.926;7.080;2022-09-03T23:25:18;17.10;84.40
10133;DHT22;5106;50.926;7.080;2022-09-03T23:27:54;17.10;84.30
10133;DHT22;5106;50.926;7.080;2022-09-03T23:30:22;17.10;84.30
10133;DHT22;5106;50.926;7.080;2022-09-03T23:32:55;17.10;84.10
10133;DHT22;5106;50.926;7.080;2022-09-03T23:35:29;17.10;83.90
10133;DHT22;5106;50.926;7.080;2022-09-03T23:38:24;17.10;83.70
10133;DHT22;5106;50.926;7.080;2022-09-03T23:40:56;17.10;83.70
10133;DHT22;5106;50.926;7.080;2022-09-03T23:46:25;17.00;83.70
10133;DHT22;5106;50.926;7.080;2022-09-03T23:49:05;17.00;83.70
10133;DHT22;5106;50.926;7.080;2022-09-03T23:52:04;17.00;83.80
10133;DHT22;5106;50.926;7.080;2022-09-03T23:54:45;17.00;83.80
